<?xml version="1.0" encoding="UTF-8" standalone="no" ?>
<gpx xmlns="http://www.topografix.com/GPX/1/1" xmlns:xsi="http://www.w3.org/2001/XMLSchema-instance" xsi:schemaLocation="http://www.topografix.com/GPX/1/1 http://www.topografix.com/GPX/1/1/gpx.xsd" version="1.1" creator="VisuGPX - https://www.visugpx.com">
  <metadata>
    <name>2025-01-21  Randonnée TwoNav</name>
    <desc><![CDATA[2025-01-21_161346.trk]]></desc>
  </metadata>
  <trk>
    <name><![CDATA[2025-01-21  Randonnée TwoNav_1]]></name>
    <trkseg>
      <trkpt lat="48.17586" lon="6.83276">
        <ele>544.8</ele>
        <time>2025-01-21T15:13:46Z</time>
      </trkpt>
      <trkpt lat="48.17576" lon="6.83278">
        <ele>544.7</ele>
        <time>2025-01-21T15:13:47Z</time>
      </trkpt>
      <trkpt lat="48.17567" lon="6.83281">
        <ele>544.7</ele>
        <time>2025-01-21T15:13:48Z</time>
      </trkpt>
      <trkpt lat="48.17565" lon="6.83282">
        <ele>544.7</ele>
        <time>2025-01-21T15:13:49Z</time>
      </trkpt>
      <trkpt lat="48.17564" lon="6.83282">
        <ele>544.6</ele>
        <time>2025-01-21T15:13:50Z</time>
      </trkpt>
      <trkpt lat="48.17563" lon="6.83283">
        <ele>544.6</ele>
        <time>2025-01-21T15:13:51Z</time>
      </trkpt>
      <trkpt lat="48.17563" lon="6.83283">
        <ele>544.6</ele>
        <time>2025-01-21T15:13:52Z</time>
      </trkpt>
      <trkpt lat="48.17563" lon="6.83283">
        <ele>544.6</ele>
        <time>2025-01-21T15:13:53Z</time>
      </trkpt>
      <trkpt lat="48.17563" lon="6.83283">
        <ele>544.6</ele>
        <time>2025-01-21T15:13:54Z</time>
      </trkpt>
      <trkpt lat="48.17563" lon="6.83283">
        <ele>544.6</ele>
        <time>2025-01-21T15:13:55Z</time>
      </trkpt>
      <trkpt lat="48.17563" lon="6.83283">
        <ele>544.6</ele>
        <time>2025-01-21T15:13:56Z</time>
      </trkpt>
      <trkpt lat="48.17563" lon="6.83283">
        <ele>544.6</ele>
        <time>2025-01-21T15:13:57Z</time>
      </trkpt>
      <trkpt lat="48.17564" lon="6.83283">
        <ele>544.6</ele>
        <time>2025-01-21T15:13:58Z</time>
      </trkpt>
      <trkpt lat="48.17564" lon="6.83284">
        <ele>544.6</ele>
        <time>2025-01-21T15:13:59Z</time>
      </trkpt>
      <trkpt lat="48.17565" lon="6.83285">
        <ele>544.6</ele>
        <time>2025-01-21T15:14:00Z</time>
      </trkpt>
      <trkpt lat="48.17566" lon="6.83285">
        <ele>544.6</ele>
        <time>2025-01-21T15:14:01Z</time>
      </trkpt>
      <trkpt lat="48.17567" lon="6.8327">
        <ele>544.6</ele>
        <time>2025-01-21T15:14:11Z</time>
      </trkpt>
      <trkpt lat="48.17563" lon="6.83257">
        <ele>544.5</ele>
        <time>2025-01-21T15:14:19Z</time>
      </trkpt>
      <trkpt lat="48.17564" lon="6.83243">
        <ele>544.4</ele>
        <time>2025-01-21T15:14:27Z</time>
      </trkpt>
      <trkpt lat="48.17567" lon="6.83228">
        <ele>543.9</ele>
        <time>2025-01-21T15:14:34Z</time>
      </trkpt>
      <trkpt lat="48.17569" lon="6.83215">
        <ele>543.4</ele>
        <time>2025-01-21T15:14:41Z</time>
      </trkpt>
      <trkpt lat="48.17572" lon="6.83202">
        <ele>542.9</ele>
        <time>2025-01-21T15:14:48Z</time>
      </trkpt>
      <trkpt lat="48.17576" lon="6.83188">
        <ele>542.4</ele>
        <time>2025-01-21T15:14:54Z</time>
      </trkpt>
      <trkpt lat="48.17581" lon="6.83175">
        <ele>541.9</ele>
        <time>2025-01-21T15:14:58Z</time>
      </trkpt>
      <trkpt lat="48.17585" lon="6.83162">
        <ele>541.4</ele>
        <time>2025-01-21T15:15:04Z</time>
      </trkpt>
      <trkpt lat="48.17585" lon="6.83147">
        <ele>540.9</ele>
        <time>2025-01-21T15:15:12Z</time>
      </trkpt>
      <trkpt lat="48.17586" lon="6.83133">
        <ele>540.5</ele>
        <time>2025-01-21T15:15:19Z</time>
      </trkpt>
      <trkpt lat="48.17592" lon="6.8312">
        <ele>540</ele>
        <time>2025-01-21T15:15:26Z</time>
      </trkpt>
      <trkpt lat="48.176" lon="6.8311">
        <ele>538.3</ele>
        <time>2025-01-21T15:15:33Z</time>
      </trkpt>
      <trkpt lat="48.17603" lon="6.83096">
        <ele>537.8</ele>
        <time>2025-01-21T15:15:40Z</time>
      </trkpt>
      <trkpt lat="48.17602" lon="6.83082">
        <ele>536.9</ele>
        <time>2025-01-21T15:15:48Z</time>
      </trkpt>
      <trkpt lat="48.17593" lon="6.83074">
        <ele>535.8</ele>
        <time>2025-01-21T15:15:56Z</time>
      </trkpt>
      <trkpt lat="48.17584" lon="6.83071">
        <ele>534.8</ele>
        <time>2025-01-21T15:16:03Z</time>
      </trkpt>
      <trkpt lat="48.17575" lon="6.83069">
        <ele>533.7</ele>
        <time>2025-01-21T15:16:10Z</time>
      </trkpt>
      <trkpt lat="48.17566" lon="6.83069">
        <ele>532.6</ele>
        <time>2025-01-21T15:16:17Z</time>
      </trkpt>
      <trkpt lat="48.17557" lon="6.83065">
        <ele>531.5</ele>
        <time>2025-01-21T15:16:24Z</time>
      </trkpt>
      <trkpt lat="48.1755" lon="6.83053">
        <ele>530.2</ele>
        <time>2025-01-21T15:16:31Z</time>
      </trkpt>
      <trkpt lat="48.17549" lon="6.83038">
        <ele>528.8</ele>
        <time>2025-01-21T15:16:38Z</time>
      </trkpt>
      <trkpt lat="48.17554" lon="6.83026">
        <ele>527.4</ele>
        <time>2025-01-21T15:16:45Z</time>
      </trkpt>
      <trkpt lat="48.1756" lon="6.83015">
        <ele>526.2</ele>
        <time>2025-01-21T15:16:52Z</time>
      </trkpt>
      <trkpt lat="48.17563" lon="6.83001">
        <ele>524.9</ele>
        <time>2025-01-21T15:17:00Z</time>
      </trkpt>
      <trkpt lat="48.1756" lon="6.82987">
        <ele>523.5</ele>
        <time>2025-01-21T15:17:08Z</time>
      </trkpt>
      <trkpt lat="48.17556" lon="6.82973">
        <ele>522.3</ele>
        <time>2025-01-21T15:17:16Z</time>
      </trkpt>
      <trkpt lat="48.17555" lon="6.82959">
        <ele>521.3</ele>
        <time>2025-01-21T15:17:23Z</time>
      </trkpt>
      <trkpt lat="48.17557" lon="6.82945">
        <ele>520.5</ele>
        <time>2025-01-21T15:17:30Z</time>
      </trkpt>
      <trkpt lat="48.17557" lon="6.82931">
        <ele>519.7</ele>
        <time>2025-01-21T15:17:37Z</time>
      </trkpt>
      <trkpt lat="48.1755" lon="6.82919">
        <ele>518.8</ele>
        <time>2025-01-21T15:17:45Z</time>
      </trkpt>
      <trkpt lat="48.17545" lon="6.82906">
        <ele>517.7</ele>
        <time>2025-01-21T15:17:52Z</time>
      </trkpt>
      <trkpt lat="48.17541" lon="6.82893">
        <ele>516.8</ele>
        <time>2025-01-21T15:17:59Z</time>
      </trkpt>
      <trkpt lat="48.17538" lon="6.8288">
        <ele>516</ele>
        <time>2025-01-21T15:18:06Z</time>
      </trkpt>
      <trkpt lat="48.17534" lon="6.82867">
        <ele>515.4</ele>
        <time>2025-01-21T15:18:13Z</time>
      </trkpt>
      <trkpt lat="48.17529" lon="6.82856">
        <ele>514.8</ele>
        <time>2025-01-21T15:18:20Z</time>
      </trkpt>
      <trkpt lat="48.17518" lon="6.82858">
        <ele>514.2</ele>
        <time>2025-01-21T15:18:28Z</time>
      </trkpt>
      <trkpt lat="48.1751" lon="6.82865">
        <ele>513.8</ele>
        <time>2025-01-21T15:18:35Z</time>
      </trkpt>
      <trkpt lat="48.17502" lon="6.82872">
        <ele>513.5</ele>
        <time>2025-01-21T15:18:42Z</time>
      </trkpt>
      <trkpt lat="48.17495" lon="6.82877">
        <ele>513.4</ele>
        <time>2025-01-21T15:18:53Z</time>
      </trkpt>
      <trkpt lat="48.17495" lon="6.82877">
        <ele>513.4</ele>
        <time>2025-01-21T15:18:54Z</time>
      </trkpt>
      <trkpt lat="48.17495" lon="6.82878">
        <ele>513.4</ele>
        <time>2025-01-21T15:18:57Z</time>
      </trkpt>
      <trkpt lat="48.17495" lon="6.8288">
        <ele>513.4</ele>
        <time>2025-01-21T15:18:58Z</time>
      </trkpt>
      <trkpt lat="48.17494" lon="6.82882">
        <ele>513.4</ele>
        <time>2025-01-21T15:18:59Z</time>
      </trkpt>
      <trkpt lat="48.17488" lon="6.82893">
        <ele>513.4</ele>
        <time>2025-01-21T15:19:06Z</time>
      </trkpt>
      <trkpt lat="48.1748" lon="6.82902">
        <ele>513.5</ele>
        <time>2025-01-21T15:19:13Z</time>
      </trkpt>
      <trkpt lat="48.17473" lon="6.82912">
        <ele>513.7</ele>
        <time>2025-01-21T15:19:20Z</time>
      </trkpt>
      <trkpt lat="48.17464" lon="6.82919">
        <ele>513.9</ele>
        <time>2025-01-21T15:19:27Z</time>
      </trkpt>
      <trkpt lat="48.17456" lon="6.82927">
        <ele>514.1</ele>
        <time>2025-01-21T15:19:34Z</time>
      </trkpt>
      <trkpt lat="48.17449" lon="6.82936">
        <ele>514.5</ele>
        <time>2025-01-21T15:19:41Z</time>
      </trkpt>
      <trkpt lat="48.17442" lon="6.82947">
        <ele>514.9</ele>
        <time>2025-01-21T15:19:48Z</time>
      </trkpt>
      <trkpt lat="48.17435" lon="6.82957">
        <ele>515.3</ele>
        <time>2025-01-21T15:19:55Z</time>
      </trkpt>
      <trkpt lat="48.17427" lon="6.82965">
        <ele>515.8</ele>
        <time>2025-01-21T15:20:02Z</time>
      </trkpt>
      <trkpt lat="48.17418" lon="6.82973">
        <ele>516.4</ele>
        <time>2025-01-21T15:20:09Z</time>
      </trkpt>
      <trkpt lat="48.1741" lon="6.82981">
        <ele>517.3</ele>
        <time>2025-01-21T15:20:16Z</time>
      </trkpt>
      <trkpt lat="48.17402" lon="6.8299">
        <ele>518.4</ele>
        <time>2025-01-21T15:20:23Z</time>
      </trkpt>
      <trkpt lat="48.17395" lon="6.83001">
        <ele>519.7</ele>
        <time>2025-01-21T15:20:30Z</time>
      </trkpt>
      <trkpt lat="48.17392" lon="6.83014">
        <ele>521</ele>
        <time>2025-01-21T15:20:37Z</time>
      </trkpt>
      <trkpt lat="48.17392" lon="6.83029">
        <ele>522.3</ele>
        <time>2025-01-21T15:20:45Z</time>
      </trkpt>
      <trkpt lat="48.17393" lon="6.83043">
        <ele>523.4</ele>
        <time>2025-01-21T15:20:52Z</time>
      </trkpt>
      <trkpt lat="48.17393" lon="6.83057">
        <ele>524.5</ele>
        <time>2025-01-21T15:20:59Z</time>
      </trkpt>
      <trkpt lat="48.17389" lon="6.8307">
        <ele>525.7</ele>
        <time>2025-01-21T15:21:06Z</time>
      </trkpt>
      <trkpt lat="48.17383" lon="6.83081">
        <ele>526.7</ele>
        <time>2025-01-21T15:21:13Z</time>
      </trkpt>
      <trkpt lat="48.17375" lon="6.83088">
        <ele>527.7</ele>
        <time>2025-01-21T15:21:20Z</time>
      </trkpt>
      <trkpt lat="48.17367" lon="6.83096">
        <ele>528.7</ele>
        <time>2025-01-21T15:21:27Z</time>
      </trkpt>
      <trkpt lat="48.1736" lon="6.83106">
        <ele>529.6</ele>
        <time>2025-01-21T15:21:34Z</time>
      </trkpt>
      <trkpt lat="48.17353" lon="6.83116">
        <ele>530.2</ele>
        <time>2025-01-21T15:21:41Z</time>
      </trkpt>
      <trkpt lat="48.17347" lon="6.83126">
        <ele>530.7</ele>
        <time>2025-01-21T15:21:48Z</time>
      </trkpt>
      <trkpt lat="48.17342" lon="6.83137">
        <ele>530.9</ele>
        <time>2025-01-21T15:21:55Z</time>
      </trkpt>
      <trkpt lat="48.17337" lon="6.83149">
        <ele>531</ele>
        <time>2025-01-21T15:22:02Z</time>
      </trkpt>
      <trkpt lat="48.17331" lon="6.83162">
        <ele>531</ele>
        <time>2025-01-21T15:22:10Z</time>
      </trkpt>
      <trkpt lat="48.17326" lon="6.83174">
        <ele>530.9</ele>
        <time>2025-01-21T15:22:17Z</time>
      </trkpt>
      <trkpt lat="48.17321" lon="6.83186">
        <ele>530.9</ele>
        <time>2025-01-21T15:22:24Z</time>
      </trkpt>
      <trkpt lat="48.17317" lon="6.83199">
        <ele>530.9</ele>
        <time>2025-01-21T15:22:31Z</time>
      </trkpt>
      <trkpt lat="48.17312" lon="6.83212">
        <ele>530.9</ele>
        <time>2025-01-21T15:22:38Z</time>
      </trkpt>
      <trkpt lat="48.17308" lon="6.83225">
        <ele>530.8</ele>
        <time>2025-01-21T15:22:45Z</time>
      </trkpt>
      <trkpt lat="48.17303" lon="6.83238">
        <ele>530.8</ele>
        <time>2025-01-21T15:22:52Z</time>
      </trkpt>
      <trkpt lat="48.17297" lon="6.83251">
        <ele>530.9</ele>
        <time>2025-01-21T15:22:59Z</time>
      </trkpt>
      <trkpt lat="48.17292" lon="6.83263">
        <ele>530.9</ele>
        <time>2025-01-21T15:23:06Z</time>
      </trkpt>
      <trkpt lat="48.17287" lon="6.83275">
        <ele>531</ele>
        <time>2025-01-21T15:23:13Z</time>
      </trkpt>
      <trkpt lat="48.17282" lon="6.83288">
        <ele>531.2</ele>
        <time>2025-01-21T15:23:20Z</time>
      </trkpt>
      <trkpt lat="48.17277" lon="6.83301">
        <ele>531.4</ele>
        <time>2025-01-21T15:23:27Z</time>
      </trkpt>
      <trkpt lat="48.17273" lon="6.83314">
        <ele>531.6</ele>
        <time>2025-01-21T15:23:34Z</time>
      </trkpt>
      <trkpt lat="48.17269" lon="6.83327">
        <ele>531.9</ele>
        <time>2025-01-21T15:23:41Z</time>
      </trkpt>
      <trkpt lat="48.17265" lon="6.8334">
        <ele>532.1</ele>
        <time>2025-01-21T15:23:48Z</time>
      </trkpt>
      <trkpt lat="48.17261" lon="6.83353">
        <ele>532.2</ele>
        <time>2025-01-21T15:23:55Z</time>
      </trkpt>
      <trkpt lat="48.17258" lon="6.83366">
        <ele>532.3</ele>
        <time>2025-01-21T15:24:02Z</time>
      </trkpt>
      <trkpt lat="48.17253" lon="6.83378">
        <ele>532.2</ele>
        <time>2025-01-21T15:24:09Z</time>
      </trkpt>
      <trkpt lat="48.17248" lon="6.8339">
        <ele>532</ele>
        <time>2025-01-21T15:24:16Z</time>
      </trkpt>
      <trkpt lat="48.17241" lon="6.834">
        <ele>531.7</ele>
        <time>2025-01-21T15:24:23Z</time>
      </trkpt>
      <trkpt lat="48.17233" lon="6.83408">
        <ele>531.3</ele>
        <time>2025-01-21T15:24:30Z</time>
      </trkpt>
      <trkpt lat="48.17223" lon="6.83413">
        <ele>530.9</ele>
        <time>2025-01-21T15:24:37Z</time>
      </trkpt>
      <trkpt lat="48.17213" lon="6.83413">
        <ele>530.7</ele>
        <time>2025-01-21T15:24:44Z</time>
      </trkpt>
      <trkpt lat="48.17203" lon="6.8341">
        <ele>530.7</ele>
        <time>2025-01-21T15:24:51Z</time>
      </trkpt>
      <trkpt lat="48.17194" lon="6.83407">
        <ele>530.8</ele>
        <time>2025-01-21T15:24:58Z</time>
      </trkpt>
      <trkpt lat="48.17184" lon="6.83407">
        <ele>531.1</ele>
        <time>2025-01-21T15:25:05Z</time>
      </trkpt>
      <trkpt lat="48.17176" lon="6.83413">
        <ele>531.4</ele>
        <time>2025-01-21T15:25:12Z</time>
      </trkpt>
      <trkpt lat="48.17169" lon="6.83423">
        <ele>531.8</ele>
        <time>2025-01-21T15:25:19Z</time>
      </trkpt>
      <trkpt lat="48.17166" lon="6.83435">
        <ele>532.3</ele>
        <time>2025-01-21T15:25:26Z</time>
      </trkpt>
      <trkpt lat="48.17163" lon="6.83448">
        <ele>532.8</ele>
        <time>2025-01-21T15:25:33Z</time>
      </trkpt>
      <trkpt lat="48.17159" lon="6.83462">
        <ele>533.4</ele>
        <time>2025-01-21T15:25:40Z</time>
      </trkpt>
      <trkpt lat="48.17156" lon="6.83475">
        <ele>533.9</ele>
        <time>2025-01-21T15:25:47Z</time>
      </trkpt>
      <trkpt lat="48.17153" lon="6.83488">
        <ele>534.5</ele>
        <time>2025-01-21T15:25:54Z</time>
      </trkpt>
      <trkpt lat="48.1715" lon="6.83501">
        <ele>535</ele>
        <time>2025-01-21T15:26:01Z</time>
      </trkpt>
      <trkpt lat="48.17147" lon="6.83515">
        <ele>535.6</ele>
        <time>2025-01-21T15:26:08Z</time>
      </trkpt>
      <trkpt lat="48.17144" lon="6.83528">
        <ele>536.2</ele>
        <time>2025-01-21T15:26:15Z</time>
      </trkpt>
      <trkpt lat="48.17141" lon="6.83541">
        <ele>536.8</ele>
        <time>2025-01-21T15:26:22Z</time>
      </trkpt>
      <trkpt lat="48.17136" lon="6.83555">
        <ele>537.5</ele>
        <time>2025-01-21T15:26:29Z</time>
      </trkpt>
      <trkpt lat="48.17131" lon="6.83567">
        <ele>538.1</ele>
        <time>2025-01-21T15:26:36Z</time>
      </trkpt>
      <trkpt lat="48.17126" lon="6.83579">
        <ele>538.5</ele>
        <time>2025-01-21T15:26:43Z</time>
      </trkpt>
      <trkpt lat="48.1712" lon="6.8359">
        <ele>538.8</ele>
        <time>2025-01-21T15:26:50Z</time>
      </trkpt>
      <trkpt lat="48.17113" lon="6.836">
        <ele>539.1</ele>
        <time>2025-01-21T15:26:57Z</time>
      </trkpt>
      <trkpt lat="48.17107" lon="6.8361">
        <ele>539.4</ele>
        <time>2025-01-21T15:27:04Z</time>
      </trkpt>
      <trkpt lat="48.17101" lon="6.83621">
        <ele>539.6</ele>
        <time>2025-01-21T15:27:11Z</time>
      </trkpt>
      <trkpt lat="48.17095" lon="6.83632">
        <ele>539.9</ele>
        <time>2025-01-21T15:27:18Z</time>
      </trkpt>
      <trkpt lat="48.17089" lon="6.83643">
        <ele>540.2</ele>
        <time>2025-01-21T15:27:25Z</time>
      </trkpt>
      <trkpt lat="48.17082" lon="6.83653">
        <ele>540.5</ele>
        <time>2025-01-21T15:27:32Z</time>
      </trkpt>
      <trkpt lat="48.17076" lon="6.83665">
        <ele>540.9</ele>
        <time>2025-01-21T15:27:39Z</time>
      </trkpt>
      <trkpt lat="48.17069" lon="6.83676">
        <ele>541.2</ele>
        <time>2025-01-21T15:27:46Z</time>
      </trkpt>
      <trkpt lat="48.17063" lon="6.83687">
        <ele>541.5</ele>
        <time>2025-01-21T15:27:53Z</time>
      </trkpt>
      <trkpt lat="48.17057" lon="6.83698">
        <ele>541.9</ele>
        <time>2025-01-21T15:28:00Z</time>
      </trkpt>
      <trkpt lat="48.1705" lon="6.83709">
        <ele>542.2</ele>
        <time>2025-01-21T15:28:07Z</time>
      </trkpt>
      <trkpt lat="48.17044" lon="6.8372">
        <ele>542.6</ele>
        <time>2025-01-21T15:28:14Z</time>
      </trkpt>
      <trkpt lat="48.17037" lon="6.83731">
        <ele>543</ele>
        <time>2025-01-21T15:28:21Z</time>
      </trkpt>
      <trkpt lat="48.1703" lon="6.83741">
        <ele>543.1</ele>
        <time>2025-01-21T15:28:28Z</time>
      </trkpt>
      <trkpt lat="48.17023" lon="6.8375">
        <ele>543.3</ele>
        <time>2025-01-21T15:28:35Z</time>
      </trkpt>
      <trkpt lat="48.17015" lon="6.83758">
        <ele>543.4</ele>
        <time>2025-01-21T15:28:42Z</time>
      </trkpt>
      <trkpt lat="48.17007" lon="6.83764">
        <ele>543.5</ele>
        <time>2025-01-21T15:28:49Z</time>
      </trkpt>
      <trkpt lat="48.16998" lon="6.83769">
        <ele>543.5</ele>
        <time>2025-01-21T15:28:56Z</time>
      </trkpt>
      <trkpt lat="48.16989" lon="6.83774">
        <ele>543.5</ele>
        <time>2025-01-21T15:29:03Z</time>
      </trkpt>
      <trkpt lat="48.1698" lon="6.83779">
        <ele>543.4</ele>
        <time>2025-01-21T15:29:10Z</time>
      </trkpt>
      <trkpt lat="48.16971" lon="6.83784">
        <ele>543.2</ele>
        <time>2025-01-21T15:29:17Z</time>
      </trkpt>
      <trkpt lat="48.16962" lon="6.83789">
        <ele>542.9</ele>
        <time>2025-01-21T15:29:24Z</time>
      </trkpt>
      <trkpt lat="48.16954" lon="6.83794">
        <ele>542.5</ele>
        <time>2025-01-21T15:29:31Z</time>
      </trkpt>
      <trkpt lat="48.16945" lon="6.83799">
        <ele>542.3</ele>
        <time>2025-01-21T15:29:38Z</time>
      </trkpt>
      <trkpt lat="48.16936" lon="6.83806">
        <ele>542</ele>
        <time>2025-01-21T15:29:45Z</time>
      </trkpt>
      <trkpt lat="48.16929" lon="6.83814">
        <ele>541.7</ele>
        <time>2025-01-21T15:29:52Z</time>
      </trkpt>
      <trkpt lat="48.16923" lon="6.83826">
        <ele>541.5</ele>
        <time>2025-01-21T15:29:59Z</time>
      </trkpt>
      <trkpt lat="48.16919" lon="6.83838">
        <ele>541.3</ele>
        <time>2025-01-21T15:30:06Z</time>
      </trkpt>
      <trkpt lat="48.16915" lon="6.83852">
        <ele>541.2</ele>
        <time>2025-01-21T15:30:13Z</time>
      </trkpt>
      <trkpt lat="48.16913" lon="6.83865">
        <ele>541.2</ele>
        <time>2025-01-21T15:30:20Z</time>
      </trkpt>
      <trkpt lat="48.1691" lon="6.83878">
        <ele>541.2</ele>
        <time>2025-01-21T15:30:28Z</time>
      </trkpt>
      <trkpt lat="48.16908" lon="6.83892">
        <ele>541.4</ele>
        <time>2025-01-21T15:30:37Z</time>
      </trkpt>
      <trkpt lat="48.16905" lon="6.83907">
        <ele>541.6</ele>
        <time>2025-01-21T15:30:45Z</time>
      </trkpt>
      <trkpt lat="48.16902" lon="6.83921">
        <ele>542</ele>
        <time>2025-01-21T15:30:53Z</time>
      </trkpt>
      <trkpt lat="48.16899" lon="6.83935">
        <ele>542.6</ele>
        <time>2025-01-21T15:31:01Z</time>
      </trkpt>
      <trkpt lat="48.16896" lon="6.83948">
        <ele>543.2</ele>
        <time>2025-01-21T15:31:08Z</time>
      </trkpt>
      <trkpt lat="48.16889" lon="6.83959">
        <ele>544</ele>
        <time>2025-01-21T15:31:16Z</time>
      </trkpt>
      <trkpt lat="48.1688" lon="6.83966">
        <ele>545</ele>
        <time>2025-01-21T15:31:24Z</time>
      </trkpt>
      <trkpt lat="48.16872" lon="6.83961">
        <ele>545.8</ele>
        <time>2025-01-21T15:31:33Z</time>
      </trkpt>
      <trkpt lat="48.16863" lon="6.83953">
        <ele>546.5</ele>
        <time>2025-01-21T15:31:41Z</time>
      </trkpt>
      <trkpt lat="48.16855" lon="6.83947">
        <ele>547.2</ele>
        <time>2025-01-21T15:31:48Z</time>
      </trkpt>
      <trkpt lat="48.16846" lon="6.83944">
        <ele>547.9</ele>
        <time>2025-01-21T15:31:55Z</time>
      </trkpt>
      <trkpt lat="48.16837" lon="6.8394">
        <ele>548.6</ele>
        <time>2025-01-21T15:32:03Z</time>
      </trkpt>
      <trkpt lat="48.16846" lon="6.83941">
        <ele>548</ele>
        <time>2025-01-21T15:32:18Z</time>
      </trkpt>
      <trkpt lat="48.16855" lon="6.83945">
        <ele>547.3</ele>
        <time>2025-01-21T15:32:26Z</time>
      </trkpt>
      <trkpt lat="48.16864" lon="6.83952">
        <ele>546.6</ele>
        <time>2025-01-21T15:32:34Z</time>
      </trkpt>
      <trkpt lat="48.16872" lon="6.8396">
        <ele>545.9</ele>
        <time>2025-01-21T15:32:42Z</time>
      </trkpt>
      <trkpt lat="48.1688" lon="6.83967">
        <ele>545.2</ele>
        <time>2025-01-21T15:32:50Z</time>
      </trkpt>
      <trkpt lat="48.16884" lon="6.8398">
        <ele>544.5</ele>
        <time>2025-01-21T15:32:58Z</time>
      </trkpt>
      <trkpt lat="48.16879" lon="6.83993">
        <ele>545.1</ele>
        <time>2025-01-21T15:33:06Z</time>
      </trkpt>
      <trkpt lat="48.16874" lon="6.84006">
        <ele>545.4</ele>
        <time>2025-01-21T15:33:14Z</time>
      </trkpt>
      <trkpt lat="48.16868" lon="6.84017">
        <ele>545.6</ele>
        <time>2025-01-21T15:33:21Z</time>
      </trkpt>
      <trkpt lat="48.16862" lon="6.84029">
        <ele>545.8</ele>
        <time>2025-01-21T15:33:29Z</time>
      </trkpt>
      <trkpt lat="48.16855" lon="6.84039">
        <ele>546.1</ele>
        <time>2025-01-21T15:33:37Z</time>
      </trkpt>
      <trkpt lat="48.1685" lon="6.84038">
        <ele>546.2</ele>
        <time>2025-01-21T15:33:45Z</time>
      </trkpt>
      <trkpt lat="48.1685" lon="6.84038">
        <ele>546.2</ele>
        <time>2025-01-21T15:33:46Z</time>
      </trkpt>
      <trkpt lat="48.1685" lon="6.84038">
        <ele>546.2</ele>
        <time>2025-01-21T15:33:47Z</time>
      </trkpt>
      <trkpt lat="48.16851" lon="6.84039">
        <ele>546.2</ele>
        <time>2025-01-21T15:34:43Z</time>
      </trkpt>
      <trkpt lat="48.16851" lon="6.84039">
        <ele>546.3</ele>
        <time>2025-01-21T15:34:44Z</time>
      </trkpt>
      <trkpt lat="48.16846" lon="6.84051">
        <ele>546.4</ele>
        <time>2025-01-21T15:34:52Z</time>
      </trkpt>
      <trkpt lat="48.16841" lon="6.84062">
        <ele>546.4</ele>
        <time>2025-01-21T15:35:00Z</time>
      </trkpt>
      <trkpt lat="48.16841" lon="6.84062">
        <ele>546.4</ele>
        <time>2025-01-21T15:35:03Z</time>
      </trkpt>
      <trkpt lat="48.16841" lon="6.84062">
        <ele>546.4</ele>
        <time>2025-01-21T15:35:04Z</time>
      </trkpt>
      <trkpt lat="48.16841" lon="6.84062">
        <ele>546.4</ele>
        <time>2025-01-21T15:35:30Z</time>
      </trkpt>
      <trkpt lat="48.16841" lon="6.84062">
        <ele>546.4</ele>
        <time>2025-01-21T15:35:31Z</time>
      </trkpt>
      <trkpt lat="48.16841" lon="6.84062">
        <ele>546.4</ele>
        <time>2025-01-21T15:35:32Z</time>
      </trkpt>
      <trkpt lat="48.16841" lon="6.84062">
        <ele>546.4</ele>
        <time>2025-01-21T15:35:33Z</time>
      </trkpt>
      <trkpt lat="48.16841" lon="6.84062">
        <ele>546.4</ele>
        <time>2025-01-21T15:35:34Z</time>
      </trkpt>
      <trkpt lat="48.16839" lon="6.84064">
        <ele>546.4</ele>
        <time>2025-01-21T15:36:05Z</time>
      </trkpt>
      <trkpt lat="48.16839" lon="6.84065">
        <ele>546.4</ele>
        <time>2025-01-21T15:36:06Z</time>
      </trkpt>
      <trkpt lat="48.16838" lon="6.84067">
        <ele>546.4</ele>
        <time>2025-01-21T15:36:13Z</time>
      </trkpt>
      <trkpt lat="48.16837" lon="6.84067">
        <ele>546.4</ele>
        <time>2025-01-21T15:36:14Z</time>
      </trkpt>
      <trkpt lat="48.16837" lon="6.84068">
        <ele>546.4</ele>
        <time>2025-01-21T15:36:15Z</time>
      </trkpt>
      <trkpt lat="48.16836" lon="6.8407">
        <ele>546.4</ele>
        <time>2025-01-21T15:36:16Z</time>
      </trkpt>
      <trkpt lat="48.16828" lon="6.84077">
        <ele>546.4</ele>
        <time>2025-01-21T15:36:26Z</time>
      </trkpt>
      <trkpt lat="48.16828" lon="6.84077">
        <ele>546.4</ele>
        <time>2025-01-21T15:36:31Z</time>
      </trkpt>
      <trkpt lat="48.16828" lon="6.84077">
        <ele>546.4</ele>
        <time>2025-01-21T15:36:32Z</time>
      </trkpt>
      <trkpt lat="48.16826" lon="6.84077">
        <ele>546.4</ele>
        <time>2025-01-21T15:36:37Z</time>
      </trkpt>
      <trkpt lat="48.16825" lon="6.84077">
        <ele>546.4</ele>
        <time>2025-01-21T15:36:38Z</time>
      </trkpt>
      <trkpt lat="48.16824" lon="6.84078">
        <ele>546.4</ele>
        <time>2025-01-21T15:36:39Z</time>
      </trkpt>
      <trkpt lat="48.16823" lon="6.84079">
        <ele>546.4</ele>
        <time>2025-01-21T15:36:45Z</time>
      </trkpt>
      <trkpt lat="48.16823" lon="6.84079">
        <ele>546.4</ele>
        <time>2025-01-21T15:36:46Z</time>
      </trkpt>
      <trkpt lat="48.16826" lon="6.84076">
        <ele>546.4</ele>
        <time>2025-01-21T15:36:58Z</time>
      </trkpt>
      <trkpt lat="48.16827" lon="6.84075">
        <ele>546.4</ele>
        <time>2025-01-21T15:36:59Z</time>
      </trkpt>
      <trkpt lat="48.16836" lon="6.84069">
        <ele>546.4</ele>
        <time>2025-01-21T15:37:06Z</time>
      </trkpt>
      <trkpt lat="48.16843" lon="6.84058">
        <ele>546.4</ele>
        <time>2025-01-21T15:37:13Z</time>
      </trkpt>
      <trkpt lat="48.1685" lon="6.84048">
        <ele>546.3</ele>
        <time>2025-01-21T15:37:20Z</time>
      </trkpt>
      <trkpt lat="48.16856" lon="6.84038">
        <ele>546.1</ele>
        <time>2025-01-21T15:37:27Z</time>
      </trkpt>
      <trkpt lat="48.16865" lon="6.84042">
        <ele>545.4</ele>
        <time>2025-01-21T15:37:34Z</time>
      </trkpt>
      <trkpt lat="48.1687" lon="6.84054">
        <ele>544.2</ele>
        <time>2025-01-21T15:37:41Z</time>
      </trkpt>
      <trkpt lat="48.16873" lon="6.8406">
        <ele>543.8</ele>
        <time>2025-01-21T15:37:48Z</time>
      </trkpt>
      <trkpt lat="48.16873" lon="6.8406">
        <ele>543.7</ele>
        <time>2025-01-21T15:37:49Z</time>
      </trkpt>
      <trkpt lat="48.16874" lon="6.84063">
        <ele>543.4</ele>
        <time>2025-01-21T15:37:52Z</time>
      </trkpt>
      <trkpt lat="48.16875" lon="6.84064">
        <ele>543.2</ele>
        <time>2025-01-21T15:37:53Z</time>
      </trkpt>
      <trkpt lat="48.16876" lon="6.84066">
        <ele>543.2</ele>
        <time>2025-01-21T15:37:54Z</time>
      </trkpt>
      <trkpt lat="48.16881" lon="6.84078">
        <ele>542</ele>
        <time>2025-01-21T15:38:01Z</time>
      </trkpt>
      <trkpt lat="48.16886" lon="6.84091">
        <ele>541.1</ele>
        <time>2025-01-21T15:38:08Z</time>
      </trkpt>
      <trkpt lat="48.16892" lon="6.84103">
        <ele>540.1</ele>
        <time>2025-01-21T15:38:15Z</time>
      </trkpt>
      <trkpt lat="48.16894" lon="6.84117">
        <ele>539.7</ele>
        <time>2025-01-21T15:38:22Z</time>
      </trkpt>
      <trkpt lat="48.16894" lon="6.84132">
        <ele>539.4</ele>
        <time>2025-01-21T15:38:30Z</time>
      </trkpt>
      <trkpt lat="48.16894" lon="6.84145">
        <ele>539.2</ele>
        <time>2025-01-21T15:38:37Z</time>
      </trkpt>
      <trkpt lat="48.16895" lon="6.8416">
        <ele>539</ele>
        <time>2025-01-21T15:38:45Z</time>
      </trkpt>
      <trkpt lat="48.16897" lon="6.84176">
        <ele>538.8</ele>
        <time>2025-01-21T15:38:53Z</time>
      </trkpt>
      <trkpt lat="48.16898" lon="6.84189">
        <ele>538.7</ele>
        <time>2025-01-21T15:39:00Z</time>
      </trkpt>
      <trkpt lat="48.169" lon="6.84203">
        <ele>538.7</ele>
        <time>2025-01-21T15:39:07Z</time>
      </trkpt>
      <trkpt lat="48.16902" lon="6.84217">
        <ele>538.7</ele>
        <time>2025-01-21T15:39:14Z</time>
      </trkpt>
      <trkpt lat="48.16904" lon="6.84231">
        <ele>538.8</ele>
        <time>2025-01-21T15:39:21Z</time>
      </trkpt>
      <trkpt lat="48.16905" lon="6.84246">
        <ele>538.9</ele>
        <time>2025-01-21T15:39:28Z</time>
      </trkpt>
      <trkpt lat="48.16906" lon="6.8426">
        <ele>539.2</ele>
        <time>2025-01-21T15:39:37Z</time>
      </trkpt>
      <trkpt lat="48.16907" lon="6.84273">
        <ele>539.5</ele>
        <time>2025-01-21T15:39:48Z</time>
      </trkpt>
      <trkpt lat="48.16907" lon="6.84273">
        <ele>539.5</ele>
        <time>2025-01-21T15:39:49Z</time>
      </trkpt>
      <trkpt lat="48.16908" lon="6.84275">
        <ele>539.6</ele>
        <time>2025-01-21T15:39:50Z</time>
      </trkpt>
      <trkpt lat="48.16908" lon="6.84277">
        <ele>539.6</ele>
        <time>2025-01-21T15:39:51Z</time>
      </trkpt>
      <trkpt lat="48.1691" lon="6.84291">
        <ele>539.7</ele>
        <time>2025-01-21T15:39:58Z</time>
      </trkpt>
      <trkpt lat="48.16911" lon="6.84305">
        <ele>540</ele>
        <time>2025-01-21T15:40:05Z</time>
      </trkpt>
      <trkpt lat="48.16912" lon="6.8432">
        <ele>540.3</ele>
        <time>2025-01-21T15:40:12Z</time>
      </trkpt>
      <trkpt lat="48.16914" lon="6.84334">
        <ele>540.7</ele>
        <time>2025-01-21T15:40:19Z</time>
      </trkpt>
      <trkpt lat="48.16916" lon="6.84349">
        <ele>541.3</ele>
        <time>2025-01-21T15:40:27Z</time>
      </trkpt>
      <trkpt lat="48.16917" lon="6.84363">
        <ele>541.9</ele>
        <time>2025-01-21T15:40:35Z</time>
      </trkpt>
      <trkpt lat="48.16919" lon="6.84379">
        <ele>542.7</ele>
        <time>2025-01-21T15:40:43Z</time>
      </trkpt>
      <trkpt lat="48.1692" lon="6.84392">
        <ele>543.5</ele>
        <time>2025-01-21T15:40:50Z</time>
      </trkpt>
      <trkpt lat="48.16922" lon="6.84407">
        <ele>544.3</ele>
        <time>2025-01-21T15:40:57Z</time>
      </trkpt>
      <trkpt lat="48.16923" lon="6.84421">
        <ele>545.2</ele>
        <time>2025-01-21T15:41:04Z</time>
      </trkpt>
      <trkpt lat="48.16925" lon="6.84435">
        <ele>546</ele>
        <time>2025-01-21T15:41:11Z</time>
      </trkpt>
      <trkpt lat="48.16926" lon="6.84449">
        <ele>546.7</ele>
        <time>2025-01-21T15:41:18Z</time>
      </trkpt>
      <trkpt lat="48.16928" lon="6.84463">
        <ele>547.4</ele>
        <time>2025-01-21T15:41:25Z</time>
      </trkpt>
      <trkpt lat="48.16929" lon="6.84477">
        <ele>548.1</ele>
        <time>2025-01-21T15:41:32Z</time>
      </trkpt>
      <trkpt lat="48.1693" lon="6.84492">
        <ele>548.8</ele>
        <time>2025-01-21T15:41:39Z</time>
      </trkpt>
      <trkpt lat="48.16932" lon="6.84507">
        <ele>549.6</ele>
        <time>2025-01-21T15:41:46Z</time>
      </trkpt>
      <trkpt lat="48.16933" lon="6.84521">
        <ele>550.3</ele>
        <time>2025-01-21T15:41:53Z</time>
      </trkpt>
      <trkpt lat="48.16936" lon="6.84534">
        <ele>551</ele>
        <time>2025-01-21T15:42:00Z</time>
      </trkpt>
      <trkpt lat="48.1694" lon="6.84548">
        <ele>551.6</ele>
        <time>2025-01-21T15:42:07Z</time>
      </trkpt>
      <trkpt lat="48.16945" lon="6.84562">
        <ele>552.1</ele>
        <time>2025-01-21T15:42:14Z</time>
      </trkpt>
      <trkpt lat="48.16949" lon="6.84577">
        <ele>552.5</ele>
        <time>2025-01-21T15:42:21Z</time>
      </trkpt>
      <trkpt lat="48.16953" lon="6.8459">
        <ele>552.9</ele>
        <time>2025-01-21T15:42:28Z</time>
      </trkpt>
      <trkpt lat="48.16957" lon="6.84603">
        <ele>553.3</ele>
        <time>2025-01-21T15:42:35Z</time>
      </trkpt>
      <trkpt lat="48.16961" lon="6.84616">
        <ele>553.6</ele>
        <time>2025-01-21T15:42:42Z</time>
      </trkpt>
      <trkpt lat="48.16965" lon="6.84629">
        <ele>554</ele>
        <time>2025-01-21T15:42:49Z</time>
      </trkpt>
      <trkpt lat="48.16969" lon="6.84641">
        <ele>554.4</ele>
        <time>2025-01-21T15:42:56Z</time>
      </trkpt>
      <trkpt lat="48.16973" lon="6.84654">
        <ele>554.9</ele>
        <time>2025-01-21T15:43:03Z</time>
      </trkpt>
      <trkpt lat="48.16977" lon="6.84669">
        <ele>555.6</ele>
        <time>2025-01-21T15:43:11Z</time>
      </trkpt>
      <trkpt lat="48.16981" lon="6.84681">
        <ele>556.2</ele>
        <time>2025-01-21T15:43:18Z</time>
      </trkpt>
      <trkpt lat="48.16985" lon="6.84694">
        <ele>556.9</ele>
        <time>2025-01-21T15:43:25Z</time>
      </trkpt>
      <trkpt lat="48.16989" lon="6.84707">
        <ele>557.7</ele>
        <time>2025-01-21T15:43:32Z</time>
      </trkpt>
      <trkpt lat="48.16993" lon="6.84719">
        <ele>558.5</ele>
        <time>2025-01-21T15:43:39Z</time>
      </trkpt>
      <trkpt lat="48.16997" lon="6.84733">
        <ele>559.4</ele>
        <time>2025-01-21T15:43:47Z</time>
      </trkpt>
      <trkpt lat="48.17003" lon="6.84743">
        <ele>560.1</ele>
        <time>2025-01-21T15:43:54Z</time>
      </trkpt>
      <trkpt lat="48.17011" lon="6.8475">
        <ele>560.7</ele>
        <time>2025-01-21T15:44:01Z</time>
      </trkpt>
      <trkpt lat="48.1702" lon="6.84752">
        <ele>561.3</ele>
        <time>2025-01-21T15:44:08Z</time>
      </trkpt>
      <trkpt lat="48.17029" lon="6.84751">
        <ele>561.9</ele>
        <time>2025-01-21T15:44:15Z</time>
      </trkpt>
      <trkpt lat="48.17039" lon="6.8475">
        <ele>562.4</ele>
        <time>2025-01-21T15:44:22Z</time>
      </trkpt>
      <trkpt lat="48.17048" lon="6.84749">
        <ele>563</ele>
        <time>2025-01-21T15:44:29Z</time>
      </trkpt>
      <trkpt lat="48.17057" lon="6.84747">
        <ele>563.5</ele>
        <time>2025-01-21T15:44:36Z</time>
      </trkpt>
      <trkpt lat="48.17067" lon="6.84746">
        <ele>564</ele>
        <time>2025-01-21T15:44:43Z</time>
      </trkpt>
      <trkpt lat="48.17076" lon="6.84746">
        <ele>564.5</ele>
        <time>2025-01-21T15:44:50Z</time>
      </trkpt>
      <trkpt lat="48.17085" lon="6.84743">
        <ele>565</ele>
        <time>2025-01-21T15:44:57Z</time>
      </trkpt>
      <trkpt lat="48.17094" lon="6.84742">
        <ele>565.6</ele>
        <time>2025-01-21T15:45:04Z</time>
      </trkpt>
      <trkpt lat="48.17105" lon="6.8474">
        <ele>566.2</ele>
        <time>2025-01-21T15:45:12Z</time>
      </trkpt>
      <trkpt lat="48.17114" lon="6.84739">
        <ele>566.7</ele>
        <time>2025-01-21T15:45:19Z</time>
      </trkpt>
      <trkpt lat="48.17123" lon="6.84738">
        <ele>567.3</ele>
        <time>2025-01-21T15:45:26Z</time>
      </trkpt>
      <trkpt lat="48.17132" lon="6.84738">
        <ele>567.8</ele>
        <time>2025-01-21T15:45:33Z</time>
      </trkpt>
      <trkpt lat="48.17141" lon="6.84738">
        <ele>568.4</ele>
        <time>2025-01-21T15:45:40Z</time>
      </trkpt>
      <trkpt lat="48.17151" lon="6.84741">
        <ele>569</ele>
        <time>2025-01-21T15:45:47Z</time>
      </trkpt>
      <trkpt lat="48.1716" lon="6.84744">
        <ele>569.6</ele>
        <time>2025-01-21T15:45:54Z</time>
      </trkpt>
      <trkpt lat="48.17168" lon="6.84748">
        <ele>570.1</ele>
        <time>2025-01-21T15:46:01Z</time>
      </trkpt>
      <trkpt lat="48.17177" lon="6.84752">
        <ele>570.7</ele>
        <time>2025-01-21T15:46:08Z</time>
      </trkpt>
      <trkpt lat="48.17185" lon="6.84758">
        <ele>571.2</ele>
        <time>2025-01-21T15:46:15Z</time>
      </trkpt>
      <trkpt lat="48.17194" lon="6.84762">
        <ele>571.7</ele>
        <time>2025-01-21T15:46:22Z</time>
      </trkpt>
      <trkpt lat="48.17203" lon="6.84766">
        <ele>572.2</ele>
        <time>2025-01-21T15:46:29Z</time>
      </trkpt>
      <trkpt lat="48.17213" lon="6.8477">
        <ele>572.6</ele>
        <time>2025-01-21T15:46:36Z</time>
      </trkpt>
      <trkpt lat="48.17222" lon="6.84774">
        <ele>572.9</ele>
        <time>2025-01-21T15:46:43Z</time>
      </trkpt>
      <trkpt lat="48.17231" lon="6.84779">
        <ele>573</ele>
        <time>2025-01-21T15:46:50Z</time>
      </trkpt>
      <trkpt lat="48.17239" lon="6.84785">
        <ele>572.8</ele>
        <time>2025-01-21T15:47:00Z</time>
      </trkpt>
      <trkpt lat="48.17249" lon="6.84789">
        <ele>572.5</ele>
        <time>2025-01-21T15:47:09Z</time>
      </trkpt>
      <trkpt lat="48.17258" lon="6.84792">
        <ele>572</ele>
        <time>2025-01-21T15:47:17Z</time>
      </trkpt>
      <trkpt lat="48.17268" lon="6.84793">
        <ele>571.5</ele>
        <time>2025-01-21T15:47:25Z</time>
      </trkpt>
      <trkpt lat="48.17278" lon="6.84793">
        <ele>571.1</ele>
        <time>2025-01-21T15:47:32Z</time>
      </trkpt>
      <trkpt lat="48.17288" lon="6.84793">
        <ele>570.7</ele>
        <time>2025-01-21T15:47:40Z</time>
      </trkpt>
      <trkpt lat="48.17298" lon="6.84791">
        <ele>570.4</ele>
        <time>2025-01-21T15:47:48Z</time>
      </trkpt>
      <trkpt lat="48.17308" lon="6.8479">
        <ele>570.1</ele>
        <time>2025-01-21T15:47:56Z</time>
      </trkpt>
      <trkpt lat="48.17318" lon="6.84787">
        <ele>569.8</ele>
        <time>2025-01-21T15:48:04Z</time>
      </trkpt>
      <trkpt lat="48.17327" lon="6.84784">
        <ele>569.5</ele>
        <time>2025-01-21T15:48:11Z</time>
      </trkpt>
      <trkpt lat="48.17336" lon="6.8478">
        <ele>569.2</ele>
        <time>2025-01-21T15:48:18Z</time>
      </trkpt>
      <trkpt lat="48.17345" lon="6.84777">
        <ele>568.8</ele>
        <time>2025-01-21T15:48:25Z</time>
      </trkpt>
      <trkpt lat="48.17354" lon="6.84772">
        <ele>568.4</ele>
        <time>2025-01-21T15:48:32Z</time>
      </trkpt>
      <trkpt lat="48.17362" lon="6.84765">
        <ele>567.9</ele>
        <time>2025-01-21T15:48:39Z</time>
      </trkpt>
      <trkpt lat="48.1737" lon="6.84758">
        <ele>567.5</ele>
        <time>2025-01-21T15:48:46Z</time>
      </trkpt>
      <trkpt lat="48.17378" lon="6.8475">
        <ele>567.1</ele>
        <time>2025-01-21T15:48:53Z</time>
      </trkpt>
      <trkpt lat="48.17386" lon="6.84741">
        <ele>566.7</ele>
        <time>2025-01-21T15:49:01Z</time>
      </trkpt>
      <trkpt lat="48.17393" lon="6.8473">
        <ele>566.4</ele>
        <time>2025-01-21T15:49:09Z</time>
      </trkpt>
      <trkpt lat="48.174" lon="6.84719">
        <ele>566</ele>
        <time>2025-01-21T15:49:17Z</time>
      </trkpt>
      <trkpt lat="48.17406" lon="6.84708">
        <ele>565.7</ele>
        <time>2025-01-21T15:49:24Z</time>
      </trkpt>
      <trkpt lat="48.17411" lon="6.84698">
        <ele>565.4</ele>
        <time>2025-01-21T15:49:31Z</time>
      </trkpt>
      <trkpt lat="48.17418" lon="6.84687">
        <ele>565</ele>
        <time>2025-01-21T15:49:38Z</time>
      </trkpt>
      <trkpt lat="48.17424" lon="6.84677">
        <ele>564.6</ele>
        <time>2025-01-21T15:49:45Z</time>
      </trkpt>
      <trkpt lat="48.17431" lon="6.84668">
        <ele>564.1</ele>
        <time>2025-01-21T15:49:52Z</time>
      </trkpt>
      <trkpt lat="48.17438" lon="6.84658">
        <ele>563.7</ele>
        <time>2025-01-21T15:50:00Z</time>
      </trkpt>
      <trkpt lat="48.17445" lon="6.84648">
        <ele>563.4</ele>
        <time>2025-01-21T15:50:07Z</time>
      </trkpt>
      <trkpt lat="48.17452" lon="6.84639">
        <ele>563</ele>
        <time>2025-01-21T15:50:14Z</time>
      </trkpt>
      <trkpt lat="48.17459" lon="6.84628">
        <ele>562.5</ele>
        <time>2025-01-21T15:50:22Z</time>
      </trkpt>
      <trkpt lat="48.17465" lon="6.84616">
        <ele>562.1</ele>
        <time>2025-01-21T15:50:30Z</time>
      </trkpt>
      <trkpt lat="48.17471" lon="6.84606">
        <ele>561.7</ele>
        <time>2025-01-21T15:50:37Z</time>
      </trkpt>
      <trkpt lat="48.17478" lon="6.84597">
        <ele>561.3</ele>
        <time>2025-01-21T15:50:44Z</time>
      </trkpt>
      <trkpt lat="48.17488" lon="6.84592">
        <ele>560.8</ele>
        <time>2025-01-21T15:50:51Z</time>
      </trkpt>
      <trkpt lat="48.17497" lon="6.84591">
        <ele>560.3</ele>
        <time>2025-01-21T15:50:58Z</time>
      </trkpt>
      <trkpt lat="48.17508" lon="6.84592">
        <ele>559.7</ele>
        <time>2025-01-21T15:51:06Z</time>
      </trkpt>
      <trkpt lat="48.17517" lon="6.84594">
        <ele>559.1</ele>
        <time>2025-01-21T15:51:13Z</time>
      </trkpt>
      <trkpt lat="48.17526" lon="6.846">
        <ele>558.4</ele>
        <time>2025-01-21T15:51:20Z</time>
      </trkpt>
      <trkpt lat="48.17534" lon="6.84607">
        <ele>557.9</ele>
        <time>2025-01-21T15:51:27Z</time>
      </trkpt>
      <trkpt lat="48.17543" lon="6.84613">
        <ele>557.6</ele>
        <time>2025-01-21T15:51:34Z</time>
      </trkpt>
      <trkpt lat="48.17552" lon="6.84615">
        <ele>557.5</ele>
        <time>2025-01-21T15:51:41Z</time>
      </trkpt>
      <trkpt lat="48.17562" lon="6.84614">
        <ele>557.4</ele>
        <time>2025-01-21T15:51:48Z</time>
      </trkpt>
      <trkpt lat="48.1757" lon="6.84605">
        <ele>557.4</ele>
        <time>2025-01-21T15:51:55Z</time>
      </trkpt>
      <trkpt lat="48.17578" lon="6.84596">
        <ele>557.4</ele>
        <time>2025-01-21T15:52:02Z</time>
      </trkpt>
      <trkpt lat="48.17585" lon="6.84589">
        <ele>557.5</ele>
        <time>2025-01-21T15:52:09Z</time>
      </trkpt>
      <trkpt lat="48.17593" lon="6.84581">
        <ele>557.5</ele>
        <time>2025-01-21T15:52:16Z</time>
      </trkpt>
      <trkpt lat="48.17602" lon="6.84573">
        <ele>557.5</ele>
        <time>2025-01-21T15:52:24Z</time>
      </trkpt>
      <trkpt lat="48.1761" lon="6.84566">
        <ele>557.5</ele>
        <time>2025-01-21T15:52:31Z</time>
      </trkpt>
      <trkpt lat="48.17619" lon="6.84559">
        <ele>557.6</ele>
        <time>2025-01-21T15:52:39Z</time>
      </trkpt>
      <trkpt lat="48.17627" lon="6.84554">
        <ele>557.7</ele>
        <time>2025-01-21T15:52:46Z</time>
      </trkpt>
      <trkpt lat="48.17636" lon="6.84549">
        <ele>557.8</ele>
        <time>2025-01-21T15:52:53Z</time>
      </trkpt>
      <trkpt lat="48.17646" lon="6.8455">
        <ele>557.8</ele>
        <time>2025-01-21T15:53:03Z</time>
      </trkpt>
      <trkpt lat="48.17652" lon="6.8454">
        <ele>558.4</ele>
        <time>2025-01-21T15:53:10Z</time>
      </trkpt>
      <trkpt lat="48.1766" lon="6.84532">
        <ele>559.3</ele>
        <time>2025-01-21T15:53:17Z</time>
      </trkpt>
      <trkpt lat="48.17667" lon="6.84523">
        <ele>560</ele>
        <time>2025-01-21T15:53:24Z</time>
      </trkpt>
      <trkpt lat="48.17674" lon="6.84512">
        <ele>560.8</ele>
        <time>2025-01-21T15:53:32Z</time>
      </trkpt>
      <trkpt lat="48.17681" lon="6.84502">
        <ele>561.4</ele>
        <time>2025-01-21T15:53:39Z</time>
      </trkpt>
      <trkpt lat="48.17687" lon="6.84492">
        <ele>561.9</ele>
        <time>2025-01-21T15:53:46Z</time>
      </trkpt>
      <trkpt lat="48.17693" lon="6.84481">
        <ele>562.2</ele>
        <time>2025-01-21T15:53:53Z</time>
      </trkpt>
      <trkpt lat="48.17698" lon="6.8447">
        <ele>562.4</ele>
        <time>2025-01-21T15:54:00Z</time>
      </trkpt>
      <trkpt lat="48.17703" lon="6.84457">
        <ele>562.6</ele>
        <time>2025-01-21T15:54:08Z</time>
      </trkpt>
      <trkpt lat="48.17706" lon="6.84444">
        <ele>562.8</ele>
        <time>2025-01-21T15:54:15Z</time>
      </trkpt>
      <trkpt lat="48.17709" lon="6.84431">
        <ele>563</ele>
        <time>2025-01-21T15:54:22Z</time>
      </trkpt>
      <trkpt lat="48.17712" lon="6.84417">
        <ele>563.3</ele>
        <time>2025-01-21T15:54:29Z</time>
      </trkpt>
      <trkpt lat="48.17714" lon="6.84403">
        <ele>563.7</ele>
        <time>2025-01-21T15:54:36Z</time>
      </trkpt>
      <trkpt lat="48.17717" lon="6.84389">
        <ele>564.1</ele>
        <time>2025-01-21T15:54:44Z</time>
      </trkpt>
      <trkpt lat="48.17718" lon="6.84375">
        <ele>564.4</ele>
        <time>2025-01-21T15:54:51Z</time>
      </trkpt>
      <trkpt lat="48.1772" lon="6.84362">
        <ele>564.7</ele>
        <time>2025-01-21T15:54:58Z</time>
      </trkpt>
      <trkpt lat="48.17722" lon="6.84347">
        <ele>564.9</ele>
        <time>2025-01-21T15:55:06Z</time>
      </trkpt>
      <trkpt lat="48.17724" lon="6.84333">
        <ele>565</ele>
        <time>2025-01-21T15:55:13Z</time>
      </trkpt>
      <trkpt lat="48.17726" lon="6.8432">
        <ele>565.2</ele>
        <time>2025-01-21T15:55:20Z</time>
      </trkpt>
      <trkpt lat="48.17728" lon="6.84306">
        <ele>565.3</ele>
        <time>2025-01-21T15:55:27Z</time>
      </trkpt>
      <trkpt lat="48.17729" lon="6.84292">
        <ele>565.5</ele>
        <time>2025-01-21T15:55:34Z</time>
      </trkpt>
      <trkpt lat="48.17732" lon="6.84279">
        <ele>565.8</ele>
        <time>2025-01-21T15:55:41Z</time>
      </trkpt>
      <trkpt lat="48.17735" lon="6.84264">
        <ele>566</ele>
        <time>2025-01-21T15:55:49Z</time>
      </trkpt>
      <trkpt lat="48.17738" lon="6.84249">
        <ele>566.3</ele>
        <time>2025-01-21T15:55:57Z</time>
      </trkpt>
      <trkpt lat="48.1774" lon="6.84236">
        <ele>566.7</ele>
        <time>2025-01-21T15:56:04Z</time>
      </trkpt>
      <trkpt lat="48.17742" lon="6.84223">
        <ele>567.2</ele>
        <time>2025-01-21T15:56:11Z</time>
      </trkpt>
      <trkpt lat="48.17746" lon="6.84209">
        <ele>567.9</ele>
        <time>2025-01-21T15:56:19Z</time>
      </trkpt>
      <trkpt lat="48.17746" lon="6.84195">
        <ele>568.7</ele>
        <time>2025-01-21T15:56:27Z</time>
      </trkpt>
      <trkpt lat="48.17743" lon="6.8418">
        <ele>569.5</ele>
        <time>2025-01-21T15:56:35Z</time>
      </trkpt>
      <trkpt lat="48.1774" lon="6.84167">
        <ele>570.4</ele>
        <time>2025-01-21T15:56:42Z</time>
      </trkpt>
      <trkpt lat="48.17739" lon="6.84153">
        <ele>571.2</ele>
        <time>2025-01-21T15:56:49Z</time>
      </trkpt>
      <trkpt lat="48.17741" lon="6.84139">
        <ele>572.1</ele>
        <time>2025-01-21T15:56:56Z</time>
      </trkpt>
      <trkpt lat="48.17746" lon="6.84127">
        <ele>573</ele>
        <time>2025-01-21T15:57:03Z</time>
      </trkpt>
      <trkpt lat="48.17751" lon="6.84115">
        <ele>574.1</ele>
        <time>2025-01-21T15:57:11Z</time>
      </trkpt>
      <trkpt lat="48.17757" lon="6.84103">
        <ele>575.4</ele>
        <time>2025-01-21T15:57:19Z</time>
      </trkpt>
      <trkpt lat="48.17763" lon="6.84091">
        <ele>576.7</ele>
        <time>2025-01-21T15:57:27Z</time>
      </trkpt>
      <trkpt lat="48.17768" lon="6.84079">
        <ele>578</ele>
        <time>2025-01-21T15:57:35Z</time>
      </trkpt>
      <trkpt lat="48.17773" lon="6.84066">
        <ele>579.1</ele>
        <time>2025-01-21T15:57:43Z</time>
      </trkpt>
      <trkpt lat="48.17777" lon="6.84052">
        <ele>580.1</ele>
        <time>2025-01-21T15:57:51Z</time>
      </trkpt>
      <trkpt lat="48.1778" lon="6.84038">
        <ele>580.8</ele>
        <time>2025-01-21T15:57:59Z</time>
      </trkpt>
      <trkpt lat="48.17783" lon="6.84024">
        <ele>581.3</ele>
        <time>2025-01-21T15:58:07Z</time>
      </trkpt>
      <trkpt lat="48.17786" lon="6.84009">
        <ele>581.8</ele>
        <time>2025-01-21T15:58:15Z</time>
      </trkpt>
      <trkpt lat="48.17787" lon="6.83994">
        <ele>582.3</ele>
        <time>2025-01-21T15:58:23Z</time>
      </trkpt>
      <trkpt lat="48.17789" lon="6.83979">
        <ele>582.6</ele>
        <time>2025-01-21T15:58:31Z</time>
      </trkpt>
      <trkpt lat="48.17791" lon="6.83964">
        <ele>582.9</ele>
        <time>2025-01-21T15:58:39Z</time>
      </trkpt>
      <trkpt lat="48.17792" lon="6.83949">
        <ele>583.1</ele>
        <time>2025-01-21T15:58:47Z</time>
      </trkpt>
      <trkpt lat="48.17794" lon="6.83934">
        <ele>583</ele>
        <time>2025-01-21T15:58:55Z</time>
      </trkpt>
      <trkpt lat="48.17795" lon="6.83919">
        <ele>582.6</ele>
        <time>2025-01-21T15:59:03Z</time>
      </trkpt>
      <trkpt lat="48.17795" lon="6.83905">
        <ele>582.1</ele>
        <time>2025-01-21T15:59:10Z</time>
      </trkpt>
      <trkpt lat="48.17796" lon="6.8389">
        <ele>581.4</ele>
        <time>2025-01-21T15:59:18Z</time>
      </trkpt>
      <trkpt lat="48.17797" lon="6.83876">
        <ele>580.7</ele>
        <time>2025-01-21T15:59:26Z</time>
      </trkpt>
      <trkpt lat="48.17798" lon="6.83862">
        <ele>580</ele>
        <time>2025-01-21T15:59:33Z</time>
      </trkpt>
      <trkpt lat="48.17799" lon="6.83847">
        <ele>579.3</ele>
        <time>2025-01-21T15:59:41Z</time>
      </trkpt>
      <trkpt lat="48.17801" lon="6.83833">
        <ele>578.6</ele>
        <time>2025-01-21T15:59:49Z</time>
      </trkpt>
      <trkpt lat="48.17802" lon="6.83819">
        <ele>577.9</ele>
        <time>2025-01-21T15:59:57Z</time>
      </trkpt>
      <trkpt lat="48.17803" lon="6.83805">
        <ele>577.2</ele>
        <time>2025-01-21T16:00:05Z</time>
      </trkpt>
      <trkpt lat="48.17804" lon="6.83791">
        <ele>576.5</ele>
        <time>2025-01-21T16:00:13Z</time>
      </trkpt>
      <trkpt lat="48.17806" lon="6.83777">
        <ele>575.8</ele>
        <time>2025-01-21T16:00:21Z</time>
      </trkpt>
      <trkpt lat="48.17807" lon="6.83762">
        <ele>575</ele>
        <time>2025-01-21T16:00:30Z</time>
      </trkpt>
      <trkpt lat="48.17805" lon="6.83747">
        <ele>574.2</ele>
        <time>2025-01-21T16:00:38Z</time>
      </trkpt>
      <trkpt lat="48.17803" lon="6.83733">
        <ele>573.5</ele>
        <time>2025-01-21T16:00:46Z</time>
      </trkpt>
      <trkpt lat="48.17799" lon="6.8372">
        <ele>572.6</ele>
        <time>2025-01-21T16:00:54Z</time>
      </trkpt>
      <trkpt lat="48.17795" lon="6.83707">
        <ele>571.8</ele>
        <time>2025-01-21T16:01:02Z</time>
      </trkpt>
      <trkpt lat="48.17792" lon="6.83698">
        <ele>571.2</ele>
        <time>2025-01-21T16:01:11Z</time>
      </trkpt>
      <trkpt lat="48.17792" lon="6.83698">
        <ele>571.2</ele>
        <time>2025-01-21T16:01:12Z</time>
      </trkpt>
      <trkpt lat="48.17791" lon="6.83693">
        <ele>571</ele>
        <time>2025-01-21T16:01:23Z</time>
      </trkpt>
      <trkpt lat="48.17791" lon="6.83692">
        <ele>570.9</ele>
        <time>2025-01-21T16:01:24Z</time>
      </trkpt>
      <trkpt lat="48.1779" lon="6.83691">
        <ele>570.8</ele>
        <time>2025-01-21T16:01:25Z</time>
      </trkpt>
      <trkpt lat="48.17786" lon="6.83678">
        <ele>570</ele>
        <time>2025-01-21T16:01:34Z</time>
      </trkpt>
      <trkpt lat="48.17782" lon="6.83665">
        <ele>569.3</ele>
        <time>2025-01-21T16:01:42Z</time>
      </trkpt>
      <trkpt lat="48.17778" lon="6.83652">
        <ele>568.6</ele>
        <time>2025-01-21T16:01:50Z</time>
      </trkpt>
      <trkpt lat="48.17774" lon="6.83638">
        <ele>567.8</ele>
        <time>2025-01-21T16:01:58Z</time>
      </trkpt>
      <trkpt lat="48.1777" lon="6.83625">
        <ele>567.1</ele>
        <time>2025-01-21T16:02:06Z</time>
      </trkpt>
      <trkpt lat="48.17766" lon="6.83612">
        <ele>566.4</ele>
        <time>2025-01-21T16:02:14Z</time>
      </trkpt>
      <trkpt lat="48.17762" lon="6.83598">
        <ele>565.6</ele>
        <time>2025-01-21T16:02:23Z</time>
      </trkpt>
      <trkpt lat="48.17759" lon="6.83586">
        <ele>565</ele>
        <time>2025-01-21T16:02:31Z</time>
      </trkpt>
      <trkpt lat="48.17755" lon="6.83573">
        <ele>564.4</ele>
        <time>2025-01-21T16:02:39Z</time>
      </trkpt>
      <trkpt lat="48.17752" lon="6.83559">
        <ele>563.7</ele>
        <time>2025-01-21T16:02:47Z</time>
      </trkpt>
      <trkpt lat="48.17749" lon="6.83545">
        <ele>563</ele>
        <time>2025-01-21T16:02:55Z</time>
      </trkpt>
      <trkpt lat="48.17746" lon="6.83531">
        <ele>562.3</ele>
        <time>2025-01-21T16:03:03Z</time>
      </trkpt>
      <trkpt lat="48.17743" lon="6.83518">
        <ele>561.6</ele>
        <time>2025-01-21T16:03:11Z</time>
      </trkpt>
      <trkpt lat="48.1774" lon="6.83504">
        <ele>560.9</ele>
        <time>2025-01-21T16:03:20Z</time>
      </trkpt>
      <trkpt lat="48.17737" lon="6.8349">
        <ele>560.2</ele>
        <time>2025-01-21T16:03:28Z</time>
      </trkpt>
      <trkpt lat="48.17733" lon="6.83477">
        <ele>559.6</ele>
        <time>2025-01-21T16:03:36Z</time>
      </trkpt>
      <trkpt lat="48.17731" lon="6.83462">
        <ele>559</ele>
        <time>2025-01-21T16:03:44Z</time>
      </trkpt>
      <trkpt lat="48.17728" lon="6.83449">
        <ele>558.4</ele>
        <time>2025-01-21T16:03:51Z</time>
      </trkpt>
      <trkpt lat="48.17724" lon="6.83435">
        <ele>557.8</ele>
        <time>2025-01-21T16:03:59Z</time>
      </trkpt>
      <trkpt lat="48.1772" lon="6.83421">
        <ele>557.1</ele>
        <time>2025-01-21T16:04:07Z</time>
      </trkpt>
      <trkpt lat="48.17715" lon="6.83409">
        <ele>556.5</ele>
        <time>2025-01-21T16:04:14Z</time>
      </trkpt>
      <trkpt lat="48.1771" lon="6.83398">
        <ele>555.8</ele>
        <time>2025-01-21T16:04:21Z</time>
      </trkpt>
      <trkpt lat="48.17703" lon="6.83388">
        <ele>555.3</ele>
        <time>2025-01-21T16:04:29Z</time>
      </trkpt>
      <trkpt lat="48.17695" lon="6.8338">
        <ele>554.7</ele>
        <time>2025-01-21T16:04:37Z</time>
      </trkpt>
      <trkpt lat="48.17687" lon="6.83372">
        <ele>554.2</ele>
        <time>2025-01-21T16:04:45Z</time>
      </trkpt>
      <trkpt lat="48.17678" lon="6.83364">
        <ele>553.8</ele>
        <time>2025-01-21T16:04:53Z</time>
      </trkpt>
      <trkpt lat="48.1767" lon="6.83356">
        <ele>553.3</ele>
        <time>2025-01-21T16:05:01Z</time>
      </trkpt>
      <trkpt lat="48.17661" lon="6.83348">
        <ele>552.9</ele>
        <time>2025-01-21T16:05:09Z</time>
      </trkpt>
      <trkpt lat="48.17653" lon="6.83339">
        <ele>552.4</ele>
        <time>2025-01-21T16:05:17Z</time>
      </trkpt>
      <trkpt lat="48.17646" lon="6.83331">
        <ele>551.6</ele>
        <time>2025-01-21T16:05:24Z</time>
      </trkpt>
      <trkpt lat="48.17638" lon="6.83323">
        <ele>550.6</ele>
        <time>2025-01-21T16:05:31Z</time>
      </trkpt>
      <trkpt lat="48.1763" lon="6.83314">
        <ele>549.5</ele>
        <time>2025-01-21T16:05:39Z</time>
      </trkpt>
      <trkpt lat="48.17623" lon="6.83304">
        <ele>548.5</ele>
        <time>2025-01-21T16:05:47Z</time>
      </trkpt>
      <trkpt lat="48.17611" lon="6.83291">
        <ele>547.2</ele>
        <time>2025-01-21T16:05:54Z</time>
      </trkpt>
      <trkpt lat="48.17607" lon="6.83286">
        <ele>546.7</ele>
        <time>2025-01-21T16:06:02Z</time>
      </trkpt>
      <trkpt lat="48.17603" lon="6.83282">
        <ele>546.4</ele>
        <time>2025-01-21T16:06:10Z</time>
      </trkpt>
      <trkpt lat="48.17599" lon="6.83278">
        <ele>546</ele>
        <time>2025-01-21T16:06:16Z</time>
      </trkpt>
      <trkpt lat="48.17594" lon="6.83274">
        <ele>545.6</ele>
        <time>2025-01-21T16:06:16Z</time>
      </trkpt>
      <trkpt lat="48.17594" lon="6.83274">
        <ele>545.6</ele>
        <time>2025-01-21T16:06:16Z</time>
      </trkpt>
    </trkseg>
  </trk>
</gpx>